This is the latest recevied weather packets stored in our database for station/object KG7BDA. If no packets are shown the sender has not sent any weather packets the latest 1 day(s).
| Time | Temp. | Humidity | Pressure | Rain* | Wind** | Luminosity | Snow |
|---|---|---|---|---|---|---|---|
| 1836274799 | 20.56° C | 38% | 1014.4 hPa | 0 mm | 2.68 m/s, 68° | - | - |
| 1836274439 | 21.11° C | 38% | 1014.4 hPa | 0 mm | 1.34 m/s, 63° | - | - |
| 1836274410 | 20° C | 39% | 1014.4 hPa | 0 mm | 1.79 m/s, 51° | - | - |
| 1836274079 | 21.67° C | 39% | 1014.3 hPa | 0 mm | 0.89 m/s, 30° | - | - |
| 1778043801 | 16.67° C | 37% | 1011 hPa | 0 mm | 3.58 m/s, 355° | - | - |
| 1778043440 | 17.78° C | 35% | 1011.8 hPa | 0 mm | 4.02 m/s, 353° | - | - |
| 1778043081 | 18.33° C | 33% | 1011.7 hPa | 0 mm | 4.92 m/s, 359° | - | - |
| 1778042721 | 18.89° C | 32% | 1011.7 hPa | 0 mm | 6.71 m/s, 5° | - | - |
| 1778042360 | 17.78° C | 34% | 1011.6 hPa | 0 mm | 5.36 m/s, 360° | - | - |
| 1778042001 | 17.78° C | 35% | 1011.5 hPa | 0 mm | 5.36 m/s, 360° | - | - |
| 1778041640 | 17.78° C | 36% | 1011.3 hPa | 0 mm | 5.36 m/s, 5° | - | - |
| 1778041282 | 17.78° C | 36% | 1011.3 hPa | 0 mm | 5.36 m/s, 356° | - | - |
| 1778040921 | 17.78° C | 36% | 1011.2 hPa | 0 mm | 4.92 m/s, 354° | - | - |
| 1778040595 | 17.78° C | 35% | 1011.1 hPa | 0 mm | 4.92 m/s, 352° | - | - |
| 1778040561 | 17.78° C | 35% | 1011.1 hPa | 0 mm | 4.92 m/s, 352° | - | - |
| 1778040200 | 18.33° C | 35% | 1011.1 hPa | 0 mm | 5.36 m/s, 351° | - | - |
| 1778039841 | 18.89° C | 34% | 1010.9 hPa | 0 mm | 6.26 m/s, 353° | - | - |
| 1778039481 | 18.89° C | 33% | 1010.8 hPa | 0 mm | 6.26 m/s, 356° | - | - |
| 1778039120 | 18.89° C | 33% | 1010.7 hPa | 0 mm | 6.26 m/s, 357° | - | - |
| 1778038761 | 18.89° C | 34% | 1010.7 hPa | 0 mm | 5.81 m/s, 358° | - | - |
| 1778038402 | 18.89° C | 34% | 1010.6 hPa | 0 mm | 6.26 m/s, 357° | - | - |
| 1778038041 | 18.89° C | 34% | 1010.4 hPa | 0 mm | 5.81 m/s, 357° | - | - |
| 1778037681 | 18.89° C | 34% | 1010.4 hPa | 0 mm | 5.36 m/s, 358° | - | - |
| 1778037321 | 18.89° C | 34% | 1010.3 hPa | 0 mm | 4.47 m/s, 2° | - | - |
| 1778036961 | 19.44° C | 33% | 1010.2 hPa | 0 mm | 5.36 m/s, 6° | - | - |
* Rain latest hour (hover to see other rain measurements)
** Current wind speed in m/s (hover to see current wind gust speed)